Time;durP1;ratioP1;P1;durP2;ratioP2;P2;SDS_P1;SDS_P2;PMS_P1;PMS_P2;Temp;Humidity;BMP_temperature;BMP_pressure;BME280_temperature;BME280_humidity;BME280_pressure;Samples;Min_cycle;Max_cycle;Signal;HPM_P1;HPM_P2
2021/12/14 00:01:19;;;;;;;16.97;11.23;;;8.40;99.90;;;;;;5018198;28;20487;-56
2021/12/14 00:03:49;;;;;;;18.73;11.00;;;8.40;99.90;;;;;;5021900;28;20448;-57
2021/12/14 00:06:20;;;;;;;16.50;9.50;;;8.60;99.90;;;;;;5020978;28;20427;-57
2021/12/14 00:08:51;;;;;;;12.80;10.47;;;8.30;99.90;;;;;;5020359;28;20525;-58
2021/12/14 00:14:00;;;;;;;18.23;10.33;;;8.40;99.90;;;;;;5017995;28;20430;-56
2021/12/14 00:16:26;;;;;;;12.97;10.50;;;8.40;99.90;;;;;;5020879;28;20493;-55
2021/12/14 00:18:52;;;;;;;12.33;9.07;;;8.40;99.90;;;;;;5019768;28;20447;-54
2021/12/14 00:21:28;;;;;;;12.80;9.20;;;8.60;99.90;;;;;;5017961;28;20461;-56
2021/12/14 00:24:07;;;;;;;12.73;9.77;;;8.30;99.90;;;;;;5019365;28;20190;-56
2021/12/14 00:26:46;;;;;;;11.00;9.47;;;8.40;99.90;;;;;;5019387;28;20446;-57
2021/12/14 00:29:22;;;;;;;9.93;8.50;;;8.70;99.90;;;;;;5021232;28;20439;-57
2021/12/14 00:31:49;;;;;;;9.93;8.57;;;8.30;99.90;;;;;;5021032;28;20485;-55
2021/12/14 00:34:22;;;;;;;17.13;10.20;;;8.50;99.90;;;;;;5019786;28;22137;-54
2021/12/14 00:36:49;;;;;;;10.83;9.13;;;8.60;99.90;;;;;;5019931;28;20541;-56
2021/12/14 00:39:15;;;;;;;12.20;9.43;;;8.70;99.90;;;;;;5014398;28;20975;-57
2021/12/14 00:41:42;;;;;;;12.73;9.17;;;8.60;99.90;;;;;;5020008;28;20459;-50
2021/12/14 00:44:09;;;;;;;14.10;10.07;;;8.30;99.90;;;;;;5020553;28;20192;-57
2021/12/14 00:46:36;;;;;;;17.50;10.57;;;8.50;99.90;;;;;;5018093;28;20447;-55
2021/12/14 00:49:04;;;;;;;14.33;10.43;;;8.70;99.90;;;;;;5020656;28;20439;-55
2021/12/14 00:51:31;;;;;;;12.30;9.50;;;8.60;99.90;;;;;;5016363;28;20900;-56
2021/12/14 00:54:03;;;;;;;11.27;9.57;;;8.60;99.90;;;;;;5020447;28;20453;-57
2021/12/14 00:56:29;;;;;;;13.53;10.50;;;8.50;99.90;;;;;;5019744;28;20431;-58
2021/12/14 00:58:55;;;;;;;12.10;9.60;;;8.40;99.90;;;;;;5021927;28;20504;-57
2021/12/14 01:01:23;;;;;;;14.50;10.73;;;8.40;99.90;;;;;;5020250;28;20466;-57
2021/12/14 01:03:54;;;;;;;13.23;10.93;;;8.40;99.90;;;;;;5019090;28;20192;-59
2021/12/14 01:06:24;;;;;;;12.20;10.23;;;8.30;99.90;;;;;;5019207;28;20424;-58
2021/12/14 01:08:51;;;;;;;13.63;10.10;;;8.50;99.90;;;;;;5019591;28;20450;-58
2021/12/14 01:11:25;;;;;;;12.70;10.50;;;8.40;99.90;;;;;;5018620;28;20491;-55
2021/12/14 01:14:02;;;;;;;12.93;10.73;;;8.10;99.90;;;;;;5018729;28;20482;-56
2021/12/14 01:16:55;;;;;;;17.60;10.77;;;8.00;99.90;;;;;;5016520;28;20546;-57
2021/12/14 01:19:27;;;;;;;13.07;10.10;;;7.90;99.90;;;;;;5018659;28;20508;-58
2021/12/14 01:27:12;;;;;;;13.00;11.00;;;8.00;99.90;;;;;;5020792;28;20431;-54
2021/12/14 01:29:39;;;;;;;15.70;10.20;;;8.00;99.90;;;;;;5022376;28;20426;-58
2021/12/14 01:32:06;;;;;;;12.53;10.73;;;7.90;99.90;;;;;;5020805;28;21006;-54
2021/12/14 01:34:32;;;;;;;13.50;10.80;;;7.80;99.90;;;;;;5023754;28;20451;-57
2021/12/14 01:37:07;;;;;;;14.20;11.57;;;7.90;99.90;;;;;;5021303;28;20439;-57
2021/12/14 01:42:21;;;;;;;10.87;9.60;;;8.00;99.90;;;;;;5023253;28;20486;-57
2021/12/14 01:45:12;;;;;;;17.13;11.30;;;8.10;99.90;;;;;;5032958;28;21351;-56
2021/12/14 01:47:45;;;;;;;14.20;9.80;;;8.00;99.90;;;;;;5023598;28;20469;-55
2021/12/14 01:50:33;;;;;;;13.10;9.33;;;8.20;99.90;;;;;;5024077;28;21390;-58
2021/12/14 01:52:59;;;;;;;16.67;10.50;;;8.20;99.90;;;;;;5021140;28;20467;-56
2021/12/14 01:55:28;;;;;;;12.60;10.10;;;8.10;99.90;;;;;;5023936;28;20967;-54
2021/12/14 01:58:01;;;;;;;15.97;11.13;;;8.10;99.90;;;;;;5022936;28;20465;-56
2021/12/14 02:00:53;;;;;;;14.87;10.83;;;8.00;99.90;;;;;;5020767;28;20809;-57
2021/12/14 02:03:26;;;;;;;13.07;10.97;;;7.80;99.90;;;;;;5025628;28;20450;-58
2021/12/14 02:05:52;;;;;;;11.43;9.40;;;7.80;99.90;;;;;;5024954;28;20534;-58
2021/12/14 02:08:24;;;;;;;14.10;9.93;;;7.90;99.90;;;;;;5025387;28;20442;-57
2021/12/14 02:10:52;;;;;;;14.27;9.50;;;8.00;99.90;;;;;;5027916;28;20246;-55
2021/12/14 02:13:46;;;;;;;12.87;11.03;;;8.10;99.90;;;;;;5035151;28;20475;-57
2021/12/14 02:16:15;;;;;;;17.93;11.03;;;8.00;99.90;;;;;;5025305;28;20439;-58
2021/12/14 02:18:45;;;;;;;14.50;11.70;;;7.90;99.90;;;;;;5025062;28;20457;-58
2021/12/14 02:21:12;;;;;;;15.87;12.27;;;7.90;99.90;;;;;;5023125;28;21005;-56
2021/12/14 02:23:42;;;;;;;15.43;11.50;;;7.80;99.90;;;;;;5024840;28;21209;-57
2021/12/14 02:26:11;;;;;;;22.03;12.87;;;7.70;99.90;;;;;;5024816;28;20963;-57
2021/12/14 02:28:37;;;;;;;17.23;12.90;;;7.80;99.90;;;;;;5024225;28;20941;-58
2021/12/14 02:31:07;;;;;;;25.70;13.20;;;7.80;99.90;;;;;;5024352;28;20462;-57
2021/12/14 02:33:36;;;;;;;12.33;11.03;;;7.90;99.90;;;;;;5025148;28;20466;-57
2021/12/14 02:36:07;;;;;;;20.30;14.20;;;7.90;99.90;;;;;;5023562;28;20454;-54
2021/12/14 02:38:33;;;;;;;18.93;13.70;;;7.80;99.90;;;;;;5025430;28;20418;-55
2021/12/14 02:41:05;;;;;;;16.50;13.87;;;7.80;99.90;;;;;;5023811;28;20443;-56
2021/12/14 02:43:41;;;;;;;18.10;12.83;;;7.90;99.90;;;;;;5023632;28;20848;-57
2021/12/14 02:46:07;;;;;;;13.47;12.03;;;7.90;99.90;;;;;;5024312;28;20876;-56
2021/12/14 02:48:33;;;;;;;13.97;12.47;;;7.90;99.90;;;;;;5024633;28;20431;-57
2021/12/14 02:51:08;;;;;;;14.67;10.47;;;7.80;99.90;;;;;;5024593;28;20658;-56
2021/12/14 02:53:34;;;;;;;15.20;12.33;;;7.90;99.90;;;;;;5022125;28;20548;-58
2021/12/14 02:55:59;;;;;;;15.03;12.10;;;8.00;99.90;;;;;;5025450;28;20542;-56
2021/12/14 02:58:25;;;;;;;14.20;10.60;;;8.00;99.90;;;;;;5024357;28;20223;-54
2021/12/14 03:00:52;;;;;;;11.17;9.67;;;7.90;99.90;;;;;;5023654;28;20196;-58
2021/12/14 03:03:19;;;;;;;14.53;10.30;;;7.90;99.90;;;;;;5026340;28;20189;-54
2021/12/14 03:05:47;;;;;;;12.40;11.10;;;7.80;99.90;;;;;;5024185;28;20530;-57
2021/12/14 03:08:23;;;;;;;13.10;10.50;;;7.80;99.90;;;;;;5024601;28;20458;-56
2021/12/14 03:11:10;;;;;;;17.27;10.13;;;8.00;99.90;;;;;;5025063;28;21068;-58
2021/12/14 03:13:42;;;;;;;16.47;10.30;;;8.10;99.90;;;;;;5022907;28;21006;-57
2021/12/14 03:16:15;;;;;;;19.23;12.30;;;8.10;99.90;;;;;;5023277;28;20960;-56
2021/12/14 03:18:43;;;;;;;14.10;12.00;;;7.70;99.90;;;;;;5027030;28;20423;-58
2021/12/14 03:21:14;;;;;;;17.40;10.60;;;7.80;99.90;;;;;;5023124;28;20443;-54
2021/12/14 03:23:45;;;;;;;13.50;11.17;;;7.90;99.90;;;;;;5024852;28;20442;-56
2021/12/14 03:26:14;;;;;;;15.80;11.47;;;7.90;99.90;;;;;;5024103;28;20890;-56
2021/12/14 03:28:41;;;;;;;12.30;10.20;;;7.80;99.90;;;;;;5022711;28;20429;-53
2021/12/14 03:31:28;;;;;;;15.70;10.97;;;7.70;99.90;;;;;;5022359;28;20446;-57
2021/12/14 03:34:05;;;;;;;17.73;11.40;;;7.80;99.90;;;;;;5023488;28;20443;-57
2021/12/14 03:36:35;;;;;;;19.60;12.63;;;7.70;99.90;;;;;;5018256;28;20435;-56
2021/12/14 03:39:15;;;;;;;15.60;13.30;;;7.60;99.90;;;;;;5024380;28;20439;-57
2021/12/14 03:41:47;;;;;;;14.53;11.90;;;7.70;99.90;;;;;;5022138;28;20463;-58
2021/12/14 03:44:18;;;;;;;22.47;15.23;;;7.60;99.90;;;;;;5023822;28;20467;-56
2021/12/14 03:47:04;;;;;;;14.30;12.80;;;7.70;99.90;;;;;;5026884;28;20439;-58
2021/12/14 03:49:37;;;;;;;17.77;13.60;;;7.70;99.90;;;;;;5023910;28;20467;-56
2021/12/14 03:52:08;;;;;;;17.50;13.10;;;7.70;99.90;;;;;;5021103;28;20558;-58
2021/12/14 03:54:33;;;;;;;19.77;13.50;;;7.90;99.90;;;;;;5024231;28;20423;-58
2021/12/14 03:56:59;;;;;;;17.37;14.40;;;8.00;99.90;;;;;;5023585;28;21162;-58
2021/12/14 03:59:31;;;;;;;26.10;14.50;;;7.90;99.90;;;;;;5022082;28;20642;-59
2021/12/14 04:01:58;;;;;;;24.23;14.87;;;7.70;99.90;;;;;;5024032;28;21222;-57
2021/12/14 04:04:33;;;;;;;20.67;14.33;;;7.60;99.90;;;;;;5021559;28;20514;-55
2021/12/14 04:07:00;;;;;;;21.23;16.80;;;7.40;99.90;;;;;;5025534;28;20492;-53
2021/12/14 04:09:31;;;;;;;21.50;15.17;;;7.30;99.90;;;;;;5021265;28;20446;-56
2021/12/14 04:11:59;;;;;;;22.47;16.23;;;7.30;99.90;;;;;;5021023;28;20625;-60
2021/12/14 04:14:29;;;;;;;20.70;15.83;;;7.30;99.90;;;;;;5024811;28;20442;-55
2021/12/14 04:16:57;;;;;;;24.27;16.43;;;7.30;99.90;;;;;;5021101;28;20514;-56
2021/12/14 04:19:27;;;;;;;22.10;14.57;;;7.60;99.90;;;;;;5021346;28;20447;-59
2021/12/14 04:21:58;;;;;;;24.80;15.43;;;7.50;99.90;;;;;;5023489;28;20897;-58
2021/12/14 04:24:28;;;;;;;22.40;13.77;;;7.60;99.90;;;;;;5022610;28;20454;-58
2021/12/14 04:26:55;;;;;;;23.17;14.90;;;7.60;99.90;;;;;;5023550;28;20949;-58
2021/12/14 04:29:21;;;;;;;22.77;14.77;;;7.50;99.90;;;;;;5024965;28;20426;-56
2021/12/14 04:31:49;;;;;;;25.60;15.30;;;7.50;99.90;;;;;;5023378;28;20529;-57
2021/12/14 04:34:17;;;;;;;23.83;15.57;;;7.40;99.90;;;;;;5024570;28;20196;-56
2021/12/14 04:36:51;;;;;;;28.30;17.13;;;7.30;99.90;;;;;;5022790;28;20443;-58
2021/12/14 04:53:02;;;;;;;34.90;19.87;;;7.50;99.90;;;;;;5022605;28;20497;-57
2021/12/14 04:55:28;;;;;;;32.40;17.30;;;7.40;99.90;;;;;;5020729;28;20505;-56
2021/12/14 04:57:53;;;;;;;32.70;19.87;;;7.30;99.90;;;;;;5023437;28;20447;-58
2021/12/14 05:00:27;;;;;;;41.17;21.80;;;7.20;99.90;;;;;;5022588;28;20188;-56
2021/12/14 05:02:56;;;;;;;40.13;20.27;;;7.10;99.90;;;;;;5023592;28;20202;-57
2021/12/14 05:05:29;;;;;;;32.30;18.40;;;7.20;99.90;;;;;;5020974;28;20432;-56
2021/12/14 05:11:05;;;;;;;38.97;20.10;;;7.40;99.90;;;;;;5022895;28;20516;-55
2021/12/14 05:13:41;;;;;;;39.07;20.40;;;7.30;99.90;;;;;;5019624;28;20521;-58
2021/12/14 05:16:08;;;;;;;39.10;18.77;;;7.20;99.90;;;;;;5021369;28;20434;-58
2021/12/14 05:18:34;;;;;;;36.83;20.40;;;7.30;99.90;;;;;;5023311;28;20892;-56
2021/12/14 05:21:00;;;;;;;36.87;20.20;;;7.20;99.90;;;;;;5020544;28;20530;-56
2021/12/14 05:23:29;;;;;;;40.47;22.50;;;7.20;99.90;;;;;;5023347;28;20860;-57
2021/12/14 05:25:56;;;;;;;37.03;20.10;;;7.40;99.90;;;;;;5022304;28;20549;-58
2021/12/14 05:28:23;;;;;;;39.63;20.13;;;7.40;99.90;;;;;;5020629;28;20513;-57
2021/12/14 05:30:54;;;;;;;44.10;21.20;;;7.30;99.90;;;;;;5023797;28;20464;-56
2021/12/14 05:33:24;;;;;;;40.57;22.00;;;7.10;99.90;;;;;;5020334;28;20838;-56
2021/12/14 05:35:54;;;;;;;40.53;20.13;;;7.40;99.90;;;;;;5024911;28;20434;-57
2021/12/14 05:38:29;;;;;;;38.70;21.10;;;7.10;99.90;;;;;;5022070;28;20433;-56
2021/12/14 05:41:08;;;;;;;43.67;20.67;;;7.20;99.90;;;;;;5020843;28;20825;-55
2021/12/14 05:43:34;;;;;;;43.30;21.33;;;7.20;99.90;;;;;;5021477;28;20446;-58
2021/12/14 05:46:03;;;;;;;47.10;21.60;;;7.10;99.90;;;;;;5021576;28;20940;-58
2021/12/14 05:48:33;;;;;;;38.40;21.50;;;7.10;99.90;;;;;;5020168;28;20526;-59
2021/12/14 05:51:04;;;;;;;40.70;19.47;;;7.10;99.90;;;;;;5020490;28;20973;-57
2021/12/14 05:53:35;;;;;;;49.07;19.40;;;7.30;99.90;;;;;;5020702;28;20486;-55
2021/12/14 05:56:09;;;;;;;38.87;18.57;;;7.40;99.90;;;;;;5022025;28;20534;-54
2021/12/14 05:58:34;;;;;;;39.13;20.00;;;7.30;99.90;;;;;;5022452;28;20433;-55
2021/12/14 06:01:11;;;;;;;43.77;20.10;;;7.20;99.90;;;;;;5018483;28;20844;-58
2021/12/14 06:03:42;;;;;;;42.73;21.67;;;7.30;99.90;;;;;;5022230;28;20191;-54
2021/12/14 06:06:23;;;;;;;39.50;19.87;;;7.20;99.90;;;;;;5020462;28;20975;-57
2021/12/14 06:08:49;;;;;;;39.27;20.73;;;7.10;99.90;;;;;;5021811;28;20435;-57
2021/12/14 06:11:24;;;;;;;39.07;20.17;;;7.20;99.90;;;;;;5022586;28;21053;-58
2021/12/14 06:13:50;;;;;;;36.30;18.90;;;7.30;99.90;;;;;;5020170;28;20854;-55
2021/12/14 06:16:27;;;;;;;39.33;20.17;;;7.30;99.90;;;;;;5022493;28;20433;-55
2021/12/14 06:18:54;;;;;;;41.23;18.77;;;7.30;99.90;;;;;;5020898;28;20476;-57
2021/12/14 06:21:31;;;;;;;40.50;19.10;;;7.30;99.90;;;;;;5020380;28;20455;-56
2021/12/14 06:24:02;;;;;;;45.87;20.00;;;7.30;99.90;;;;;;5023109;28;20518;-57
2021/12/14 06:26:40;;;;;;;36.30;18.90;;;7.20;99.90;;;;;;5021140;28;20443;-54
2021/12/14 06:29:13;;;;;;;37.10;17.47;;;7.00;99.90;;;;;;5017526;28;20450;-54
2021/12/14 06:31:41;;;;;;;29.90;14.93;;;6.90;99.90;;;;;;5022022;28;20517;-54
2021/12/14 06:34:26;;;;;;;29.77;15.73;;;6.80;99.90;;;;;;5020148;28;20907;-54
2021/12/14 06:37:03;;;;;;;34.17;16.70;;;6.80;99.90;;;;;;5022826;28;20529;-56
2021/12/14 06:39:52;;;;;;;30.90;15.90;;;6.90;99.90;;;;;;5022262;28;20423;-57
2021/12/14 06:42:17;;;;;;;30.03;14.30;;;6.90;99.90;;;;;;5019489;28;20558;-57
2021/12/14 06:44:43;;;;;;;37.80;15.93;;;6.80;99.90;;;;;;5021742;28;20526;-55
2021/12/14 06:47:09;;;;;;;28.20;13.93;;;6.80;99.90;;;;;;5021760;28;20246;-57
2021/12/14 06:49:34;;;;;;;26.80;14.73;;;6.80;99.90;;;;;;5024464;28;20235;-55
2021/12/14 06:52:00;;;;;;;29.47;15.80;;;6.70;99.90;;;;;;5024734;28;20255;-56
2021/12/14 06:54:28;;;;;;;31.40;14.73;;;6.90;99.90;;;;;;5023443;28;20183;-57
2021/12/14 06:56:58;;;;;;;29.90;15.00;;;6.80;99.90;;;;;;5025056;28;20184;-56
2021/12/14 06:59:24;;;;;;;22.23;11.17;;;6.80;99.90;;;;;;5023993;28;20493;-55
2021/12/14 07:01:57;;;;;;;23.60;11.23;;;6.80;99.90;;;;;;5022352;28;21112;-55
2021/12/14 07:04:26;;;;;;;23.23;12.40;;;6.80;99.90;;;;;;5024150;28;20250;-58
2021/12/14 07:07:09;;;;;;;21.50;10.67;;;6.90;99.90;;;;;;5024701;28;20443;-56
2021/12/14 07:09:43;;;;;;;26.03;12.43;;;6.80;99.90;;;;;;5022396;28;20500;-56
2021/12/14 07:12:19;;;;;;;21.57;11.93;;;6.50;99.90;;;;;;5035216;23;20478;-55
2021/12/14 07:14:52;;;;;;;21.03;12.10;;;6.70;99.90;;;;;;5013085;28;20444;-52
2021/12/14 07:17:26;;;;;;;26.33;11.80;;;6.60;99.90;;;;;;5016394;28;20423;-53
2021/12/14 07:19:56;;;;;;;25.00;11.13;;;6.70;99.90;;;;;;5020302;28;20495;-53
2021/12/14 07:22:31;;;;;;;23.10;11.63;;;6.60;99.90;;;;;;5018333;28;20506;-54
2021/12/14 07:25:17;;;;;;;29.27;13.57;;;6.60;99.90;;;;;;4999839;28;20432;-51
2021/12/14 07:27:45;;;;;;;27.13;12.30;;;6.60;99.90;;;;;;4999190;28;20533;-54
2021/12/14 07:30:25;;;;;;;21.67;12.60;;;6.60;99.90;;;;;;4998021;28;20780;-52
2021/12/14 07:33:08;;;;;;;26.03;11.33;;;6.60;99.90;;;;;;5001458;28;20487;-55
2021/12/14 07:36:01;;;;;;;28.20;12.37;;;6.50;99.90;;;;;;5001124;28;20444;-54
2021/12/14 07:38:49;;;;;;;28.00;12.40;;;6.50;99.90;;;;;;5000811;28;20439;-52
2021/12/14 07:41:35;;;;;;;22.73;9.70;;;6.40;99.90;;;;;;4998284;28;20463;-55
2021/12/14 07:44:25;;;;;;;20.17;11.00;;;6.40;99.90;;;;;;4999005;28;20534;-53
2021/12/14 07:47:15;;;;;;;22.03;12.30;;;6.30;99.90;;;;;;4998524;28;20838;-54
2021/12/14 07:49:54;;;;;;;24.10;13.47;;;6.30;99.90;;;;;;5010231;28;20452;-52
2021/12/14 07:52:40;;;;;;;22.40;12.17;;;6.30;99.90;;;;;;4998726;28;20479;-54
2021/12/14 07:55:14;;;;;;;23.40;13.10;;;6.40;99.90;;;;;;4997901;28;20447;-56
2021/12/14 07:57:39;;;;;;;31.47;12.63;;;6.40;99.90;;;;;;4994570;28;20451;-55
2021/12/14 08:00:15;;;;;;;29.83;14.80;;;6.40;99.90;;;;;;4997231;28;20448;-53
2021/12/14 08:02:47;;;;;;;28.93;15.03;;;6.30;99.90;;;;;;5000558;28;20916;-53
2021/12/14 08:05:28;;;;;;;32.83;14.80;;;6.30;99.90;;;;;;5001377;28;21163;-51
2021/12/14 08:08:16;;;;;;;31.50;15.13;;;6.40;99.90;;;;;;5000215;28;20762;-54
2021/12/14 08:11:17;;;;;;;24.50;13.37;;;6.30;99.90;;;;;;4998320;28;20454;-55
2021/12/14 08:13:50;;;;;;;31.20;14.27;;;6.30;99.90;;;;;;4997236;28;20501;-52
2021/12/14 08:16:17;;;;;;;30.73;15.30;;;6.20;99.90;;;;;;4998527;28;20539;-56
2021/12/14 08:18:45;;;;;;;28.23;13.37;;;6.30;99.90;;;;;;5003722;28;20455;-54
2021/12/14 08:21:26;;;;;;;28.70;15.70;;;6.30;99.90;;;;;;4998645;28;20819;-51
2021/12/14 08:24:02;;;;;;;24.00;12.97;;;6.30;99.90;;;;;;5002305;28;20579;-53
2021/12/14 08:26:28;;;;;;;24.33;13.00;;;6.50;99.90;;;;;;5002775;28;20445;-54
2021/12/14 08:29:17;;;;;;;27.20;12.73;;;6.20;99.90;;;;;;4999753;28;20444;-53
2021/12/14 08:31:46;;;;;;;26.17;13.60;;;6.30;99.90;;;;;;4999536;28;20192;-49
2021/12/14 08:34:28;;;;;;;29.17;14.00;;;6.30;99.90;;;;;;5001397;28;21021;-53
2021/12/14 08:36:59;;;;;;;24.10;13.10;;;6.30;99.90;;;;;;5002536;28;20432;-49
2021/12/14 08:39:29;;;;;;;25.80;14.03;;;6.50;99.90;;;;;;5001387;28;20460;-54
2021/12/14 08:42:12;;;;;;;21.90;11.63;;;6.40;99.90;;;;;;4998455;28;20519;-57
2021/12/14 08:44:41;;;;;;;29.67;14.57;;;6.30;99.90;;;;;;5001255;28;20467;-54
2021/12/14 08:47:10;;;;;;;31.93;13.30;;;6.40;99.90;;;;;;5014041;28;20459;-54
2021/12/14 08:49:37;;;;;;;23.43;13.47;;;6.40;99.90;;;;;;5002937;28;20443;-52
2021/12/14 08:52:04;;;;;;;32.10;15.47;;;6.20;99.90;;;;;;4998294;28;20472;-54
2021/12/14 08:54:32;;;;;;;24.73;13.20;;;6.40;99.90;;;;;;4999618;28;20515;-53
2021/12/14 08:57:26;;;;;;;29.40;14.30;;;6.40;99.90;;;;;;5000617;28;20437;-54
2021/12/14 08:59:56;;;;;;;28.20;12.50;;;6.30;99.90;;;;;;4999285;28;20436;-54
2021/12/14 09:02:24;;;;;;;31.17;14.20;;;6.30;99.90;;;;;;4999082;28;20457;-50
2021/12/14 09:04:55;;;;;;;28.07;14.07;;;6.30;99.90;;;;;;4999106;28;20450;-52
2021/12/14 09:07:28;;;;;;;27.33;14.93;;;6.40;99.90;;;;;;5018008;28;20473;-54
2021/12/14 09:09:55;;;;;;;29.00;13.10;;;6.30;99.90;;;;;;4997288;28;20584;-52
2021/12/14 09:12:29;;;;;;;32.83;14.87;;;6.40;99.90;;;;;;4998698;28;20850;-54
2021/12/14 09:15:04;;;;;;;27.27;12.77;;;6.40;99.90;;;;;;4999341;28;21170;-53
2021/12/14 09:17:31;;;;;;;31.10;15.60;;;6.30;99.90;;;;;;4998979;28;20423;-53
2021/12/14 09:20:11;;;;;;;35.37;15.40;;;6.30;99.90;;;;;;4997909;28;20432;-53
2021/12/14 09:22:41;;;;;;;35.90;15.50;;;6.20;99.90;;;;;;4999702;28;20845;-52
2021/12/14 09:25:11;;;;;;;38.50;16.67;;;6.30;99.90;;;;;;4999163;28;20493;-52
2021/12/14 09:27:37;;;;;;;31.40;15.57;;;6.30;99.90;;;;;;5000432;28;20839;-54
2021/12/14 09:30:06;;;;;;;33.03;14.93;;;6.30;99.90;;;;;;4999904;28;20448;-52
2021/12/14 09:32:34;;;;;;;34.83;16.57;;;6.30;99.90;;;;;;5000476;28;20466;-54
2021/12/14 09:35:01;;;;;;;33.37;17.63;;;6.30;99.90;;;;;;4997768;28;20520;-53
2021/12/14 09:37:28;;;;;;;28.90;15.47;;;6.40;99.90;;;;;;5001292;28;20448;-52
2021/12/14 09:39:58;;;;;;;36.23;16.57;;;6.30;99.90;;;;;;4998878;28;20429;-50
2021/12/14 09:42:27;;;;;;;40.90;16.63;;;6.20;99.90;;;;;;4998884;28;20856;-52
2021/12/14 09:44:56;;;;;;;36.70;17.13;;;6.30;99.90;;;;;;4994445;28;20795;-53
2021/12/14 09:47:26;;;;;;;34.47;18.10;;;6.30;99.90;;;;;;4999803;28;20424;-52
2021/12/14 09:49:53;;;;;;;35.97;19.00;;;6.30;99.90;;;;;;4999499;28;20934;-53
2021/12/14 09:52:26;;;;;;;32.90;18.03;;;6.30;99.90;;;;;;4999572;28;20467;-54
2021/12/14 09:54:55;;;;;;;32.87;18.43;;;6.20;99.90;;;;;;4996769;28;20447;-51
2021/12/14 09:57:25;;;;;;;39.03;18.93;;;6.30;99.90;;;;;;4996657;28;20432;-52
2021/12/14 09:59:52;;;;;;;37.47;18.33;;;6.30;99.90;;;;;;4999687;28;20428;-53
2021/12/14 10:02:25;;;;;;;37.90;19.60;;;6.30;99.90;;;;;;4997925;28;20466;-50
2021/12/14 10:04:55;;;;;;;31.17;17.60;;;6.30;99.90;;;;;;4999079;28;20427;-50
2021/12/14 10:07:22;;;;;;;30.33;18.43;;;6.40;99.90;;;;;;5000892;28;20873;-54
2021/12/14 10:09:50;;;;;;;35.90;19.60;;;6.40;99.90;;;;;;5030157;28;20837;-49
2021/12/14 10:14:55;;;;;;;33.30;18.23;;;6.50;99.90;;;;;;4998244;28;20873;-51
2021/12/14 10:17:24;;;;;;;37.20;19.87;;;6.40;99.90;;;;;;5001531;28;20429;-53
2021/12/14 10:19:50;;;;;;;34.93;16.97;;;6.50;99.90;;;;;;4999002;28;20444;-50
2021/12/14 10:22:26;;;;;;;32.67;16.87;;;6.40;99.90;;;;;;4997616;28;20899;-52
2021/12/14 10:24:56;;;;;;;26.70;16.07;;;6.40;99.90;;;;;;5000882;28;20994;-54
2021/12/14 10:27:24;;;;;;;36.47;18.73;;;6.50;99.90;;;;;;4998652;28;20447;-51
2021/12/14 10:29:50;;;;;;;32.10;17.30;;;6.40;99.90;;;;;;5003393;28;20505;-55
2021/12/14 10:32:23;;;;;;;32.27;18.37;;;6.50;99.90;;;;;;4997934;28;20483;-55
2021/12/14 10:34:53;;;;;;;34.87;18.27;;;6.50;99.90;;;;;;5001243;28;20427;-55
2021/12/14 10:37:54;;;;;;;30.40;17.67;;;6.60;99.90;;;;;;5002788;28;20493;-51
2021/12/14 10:45:35;;;;;;;41.73;20.73;;;6.70;99.90;;;;;;5002610;28;20442;-53
2021/12/14 10:48:01;;;;;;;33.80;19.10;;;6.60;99.90;;;;;;4998951;28;20440;-52
2021/12/14 10:50:35;;;;;;;32.80;18.57;;;6.60;99.90;;;;;;5001178;28;20193;-54
2021/12/14 10:53:04;;;;;;;31.60;17.13;;;6.60;99.90;;;;;;5003092;28;20803;-58
2021/12/14 10:55:36;;;;;;;38.63;19.50;;;6.60;99.90;;;;;;5003069;28;20434;-52
2021/12/14 10:58:06;;;;;;;37.43;19.60;;;6.60;99.90;;;;;;4998553;28;20483;-56
2021/12/14 11:00:41;;;;;;;39.30;19.90;;;6.60;99.90;;;;;;5002730;28;20831;-55
2021/12/14 11:03:12;;;;;;;36.00;20.43;;;6.60;99.90;;;;;;5001940;28;20444;-53
2021/12/14 11:05:44;;;;;;;36.70;19.80;;;6.60;99.90;;;;;;5002979;28;21059;-53
2021/12/14 11:08:20;;;;;;;38.40;19.00;;;6.50;99.90;;;;;;5001740;28;20440;-56
2021/12/14 11:10:46;;;;;;;36.30;17.80;;;6.70;99.90;;;;;;5015923;28;20539;-55
2021/12/14 11:13:14;;;;;;;44.37;21.73;;;6.80;99.90;;;;;;5002835;28;20479;-54
2021/12/14 11:15:45;;;;;;;39.60;19.57;;;6.70;99.90;;;;;;5001543;28;20483;-52
2021/12/14 11:18:16;;;;;;;30.63;18.10;;;6.80;99.90;;;;;;5000423;28;20893;-51
2021/12/14 11:20:59;;;;;;;35.43;19.40;;;6.80;99.90;;;;;;4999541;28;21109;-51
2021/12/14 11:23:40;;;;;;;33.07;20.40;;;6.70;99.90;;;;;;4998210;28;20456;-55
2021/12/14 11:26:20;;;;;;;37.00;21.00;;;6.60;99.90;;;;;;5001268;28;20551;-51
2021/12/14 11:28:53;;;;;;;29.70;17.70;;;6.70;99.90;;;;;;5002140;28;20492;-52
2021/12/14 11:31:55;;;;;;;32.40;19.60;;;6.60;99.90;;;;;;4999118;28;20640;-53
2021/12/14 11:34:35;;;;;;;36.70;19.77;;;6.60;99.90;;;;;;4985824;28;20459;-53
2021/12/14 11:37:07;;;;;;;28.87;17.50;;;6.50;99.90;;;;;;4998223;28;20432;-54
2021/12/14 11:39:40;;;;;;;35.13;20.30;;;6.50;99.90;;;;;;4996212;28;20432;-53
2021/12/14 11:42:09;;;;;;;36.30;20.30;;;6.50;99.90;;;;;;4997811;28;20563;-56
2021/12/14 11:44:37;;;;;;;35.93;21.00;;;6.50;99.90;;;;;;5000504;28;20811;-52
2021/12/14 11:47:47;;;;;;;38.67;20.97;;;6.50;99.90;;;;;;4999745;28;20460;-55
2021/12/14 11:50:38;;;;;;;38.20;21.37;;;6.40;99.90;;;;;;4996982;28;20451;-54
2021/12/14 11:53:07;;;;;;;39.80;20.57;;;6.50;99.90;;;;;;5000514;28;20471;-55
2021/12/14 11:55:47;;;;;;;33.83;21.73;;;6.50;99.90;;;;;;5001707;28;20436;-54
2021/12/14 11:58:26;;;;;;;34.07;21.33;;;6.40;99.90;;;;;;4996277;28;20574;-55
2021/12/14 12:01:28;;;;;;;40.60;21.77;;;6.50;99.90;;;;;;4988070;28;20467;-53
2021/12/14 12:04:13;;;;;;;33.53;21.03;;;6.60;99.90;;;;;;4996519;28;20546;-55
2021/12/14 12:09:32;;;;;;;35.03;19.87;;;6.50;99.90;;;;;;4996282;28;20428;-52
2021/12/14 12:12:06;;;;;;;39.97;21.73;;;6.60;99.90;;;;;;4997455;28;20831;-54
2021/12/14 12:14:52;;;;;;;41.07;22.20;;;6.60;99.90;;;;;;4989292;28;20440;-52
2021/12/14 12:17:47;;;;;;;38.80;23.03;;;6.70;99.90;;;;;;5006837;28;20436;-53
2021/12/14 12:20:31;;;;;;;42.77;26.37;;;6.70;99.90;;;;;;4996072;28;21414;-55
2021/12/14 12:23:08;;;;;;;42.20;23.10;;;6.80;99.90;;;;;;4995489;28;20459;-55
2021/12/14 12:25:46;;;;;;;33.73;21.03;;;6.80;99.90;;;;;;4994252;28;20434;-54
2021/12/14 12:28:18;;;;;;;36.17;21.37;;;6.80;99.90;;;;;;4996156;28;20451;-53
2021/12/14 12:30:49;;;;;;;40.30;20.67;;;6.70;99.90;;;;;;4996532;28;20433;-54
2021/12/14 12:33:45;;;;;;;33.17;20.87;;;6.80;99.90;;;;;;4993965;28;20508;-55
2021/12/14 12:36:11;;;;;;;35.50;22.17;;;6.90;99.90;;;;;;4995658;28;20450;-56
2021/12/14 12:38:43;;;;;;;35.93;20.77;;;7.10;99.90;;;;;;4995245;28;20436;-52
2021/12/14 12:41:26;;;;;;;34.93;17.90;;;7.00;99.90;;;;;;4993300;28;20180;-55
2021/12/14 12:43:59;;;;;;;29.90;18.40;;;6.90;99.90;;;;;;4994097;28;20471;-55
2021/12/14 12:46:29;;;;;;;36.00;20.33;;;6.90;99.90;;;;;;4991409;28;20545;-54
2021/12/14 12:49:04;;;;;;;30.17;17.47;;;7.00;99.90;;;;;;4991628;28;20435;-51
2021/12/14 12:51:51;;;;;;;34.20;21.40;;;7.00;99.90;;;;;;4991922;28;21071;-52
2021/12/14 12:54:19;;;;;;;37.03;20.10;;;7.00;99.90;;;;;;5027121;28;21032;-53
2021/12/14 12:57:06;;;;;;;36.70;22.20;;;7.00;99.90;;;;;;4991225;28;20447;-55
2021/12/14 12:59:51;;;;;;;32.03;19.27;;;7.00;99.90;;;;;;4995513;28;20436;-50
2021/12/14 13:02:30;;;;;;;36.00;21.17;;;7.10;99.90;;;;;;4993694;28;20521;-52
2021/12/14 13:05:04;;;;;;;32.37;19.77;;;7.20;99.90;;;;;;4995243;28;20816;-52
2021/12/14 13:07:52;;;;;;;33.00;19.90;;;7.40;99.90;;;;;;4997234;28;20451;-54
2021/12/14 13:10:34;;;;;;;33.00;20.20;;;7.30;99.90;;;;;;5011279;28;20544;-53
2021/12/14 13:13:08;;;;;;;29.03;20.10;;;7.20;99.90;;;;;;4995552;28;20521;-48
2021/12/14 13:15:52;;;;;;;30.67;18.93;;;7.20;99.90;;;;;;4994023;28;20512;-52
2021/12/14 13:18:26;;;;;;;31.40;19.83;;;7.10;99.90;;;;;;4995996;28;20487;-52
2021/12/14 13:21:20;;;;;;;37.53;20.50;;;7.00;99.90;;;;;;4993836;28;20904;-54
2021/12/14 13:23:58;;;;;;;31.93;20.03;;;7.10;99.90;;;;;;4993027;28;20539;-50
2021/12/14 13:26:28;;;;;;;34.93;21.10;;;7.20;99.90;;;;;;4994791;28;20530;-50
2021/12/14 13:29:27;;;;;;;34.53;21.70;;;7.30;99.90;;;;;;4996338;28;20920;-49
2021/12/14 13:32:03;;;;;;;32.73;20.70;;;7.30;99.90;;;;;;4984344;28;20443;-50
2021/12/14 13:34:35;;;;;;;32.07;19.87;;;7.30;99.90;;;;;;4991337;28;20884;-51
2021/12/14 13:37:03;;;;;;;31.27;19.43;;;7.30;99.90;;;;;;5012542;28;20444;-56
2021/12/14 13:39:29;;;;;;;31.27;21.23;;;7.30;99.90;;;;;;4992943;28;20436;-56
2021/12/14 13:42:05;;;;;;;30.33;20.23;;;7.30;99.90;;;;;;4994520;28;21406;-56
2021/12/14 13:44:43;;;;;;;30.90;19.20;;;7.30;99.90;;;;;;4994514;28;20518;-52
2021/12/14 13:47:13;;;;;;;33.80;20.97;;;7.30;99.90;;;;;;4994397;28;20527;-52